createdAt,value
2023-01-25T00:00:06.967Z,6.68
2023-01-25T00:02:52.932Z,6.65
2023-01-25T00:05:38.801Z,6.25
2023-01-25T00:08:25.490Z,6.80
2023-01-25T00:11:11.417Z,6.68
2023-01-25T00:13:57.594Z,6.67
2023-01-25T00:16:43.643Z,6.65
2023-01-25T00:19:29.696Z,7.45
2023-01-25T00:22:15.555Z,6.85
2023-01-25T00:25:01.812Z,6.93
2023-01-25T00:27:47.531Z,7.05
2023-01-25T00:30:35.948Z,7.18
2023-01-25T00:33:44.302Z,6.85
2023-01-25T00:36:39.376Z,7.47
2023-01-25T00:39:27.348Z,7.30
2023-01-25T00:42:14.879Z,6.30
2023-01-25T00:45:03.736Z,7.00
2023-01-25T00:47:53.839Z,7.22
2023-01-25T00:50:40.371Z,7.53
2023-01-25T00:53:26.252Z,7.50
2023-01-25T00:56:11.935Z,6.87
2023-01-25T00:58:57.787Z,6.78
2023-01-25T01:01:43.956Z,6.57
2023-01-25T01:04:30.278Z,6.20
2023-01-25T01:07:16.053Z,6.35
2023-01-25T01:10:02.021Z,6.25
2023-01-25T01:12:47.626Z,5.38
2023-01-25T01:15:38.277Z,5.00
2023-01-25T01:18:24.152Z,5.13
2023-01-25T01:21:11.630Z,5.05
2023-01-25T01:23:57.707Z,5.00
2023-01-25T01:26:43.427Z,4.63
2023-01-25T01:29:29.438Z,5.00
2023-01-25T01:32:15.495Z,4.93
2023-01-25T01:35:01.649Z,4.85
2023-01-25T01:37:46.996Z,4.17
2023-01-25T01:40:32.831Z,4.30
2023-01-25T01:43:24.112Z,4.32
2023-01-25T01:46:21.923Z,4.30
2023-01-25T01:49:23.954Z,4.53
2023-01-25T01:52:20.445Z,4.93
2023-01-25T01:55:18.060Z,5.78
2023-01-25T01:58:06.781Z,4.45
2023-01-25T02:00:53.018Z,4.07
2023-01-25T02:03:39.953Z,4.05
2023-01-25T02:06:33.625Z,4.45
2023-01-25T02:09:24.127Z,4.40
2023-01-25T02:12:10.606Z,4.38
2023-01-25T02:14:57.146Z,4.43
2023-01-25T02:17:43.791Z,4.53
2023-01-25T02:20:42.110Z,4.45
2023-01-25T02:23:43.326Z,4.47
2023-01-25T02:26:28.907Z,3.85
2023-01-25T02:29:15.219Z,4.45
2023-01-25T02:32:04.193Z,4.60
2023-01-25T02:34:50.558Z,4.60
2023-01-25T02:37:36.835Z,4.53
2023-01-25T02:40:22.848Z,5.03
2023-01-25T02:43:08.357Z,5.90
2023-01-25T02:46:02.246Z,5.63
2023-01-25T02:48:48.492Z,5.53
2023-01-25T02:51:39.264Z,5.70
2023-01-25T02:54:26.735Z,5.40
2023-01-25T02:57:12.121Z,6.03
2023-01-25T03:00:13.912Z,6.10
2023-01-25T03:02:59.579Z,5.68
2023-01-25T03:05:45.146Z,5.70
2023-01-25T03:08:30.961Z,5.97
2023-01-25T03:11:17.567Z,6.63
2023-01-25T03:14:03.744Z,6.63
2023-01-25T03:16:49.640Z,6.25
2023-01-25T03:19:38.674Z,5.72
2023-01-25T03:22:24.815Z,6.10
2023-01-25T03:25:11.675Z,6.00
2023-01-25T03:28:02.979Z,6.47
2023-01-25T03:30:53.779Z,6.78
2023-01-25T03:33:41.435Z,6.57
2023-01-25T03:36:27.568Z,6.80
2023-01-25T03:39:13.855Z,8.38
2023-01-25T03:42:02.937Z,6.95
2023-01-25T03:44:50.550Z,7.07
2023-01-25T03:47:37.058Z,7.30
2023-01-25T03:50:23.435Z,7.38
2023-01-25T03:53:29.924Z,6.90
2023-01-25T03:56:24.007Z,5.93
2023-01-25T03:59:21.096Z,6.55
2023-01-25T04:02:07.200Z,6.78
2023-01-25T04:04:53.856Z,6.78
2023-01-25T04:07:40.513Z,7.75
2023-01-25T04:10:28.057Z,6.55
2023-01-25T04:13:14.487Z,6.80
2023-01-25T04:16:00.293Z,7.43
2023-01-25T04:19:06.031Z,6.90
2023-01-25T04:21:51.928Z,7.38
2023-01-25T04:24:38.174Z,6.80
2023-01-25T04:27:24.419Z,7.05
2023-01-25T04:30:17.664Z,7.43
2023-01-25T04:33:05.505Z,6.93
2023-01-25T04:35:52.472Z,6.72
2023-01-25T04:38:38.347Z,7.15
2023-01-25T04:41:29.075Z,7.78
2023-01-25T04:44:16.716Z,7.53
2023-01-25T04:47:05.153Z,7.82
2023-01-25T04:49:51.352Z,7.47
2023-01-25T04:52:41.920Z,7.85
2023-01-25T04:55:28.064Z,8.02
2023-01-25T04:58:15.382Z,7.55
2023-01-25T05:01:03.281Z,8.13
2023-01-25T05:03:51.124Z,7.70
2023-01-25T05:06:46.908Z,7.18
2023-01-25T05:09:33.634Z,7.55
2023-01-25T05:12:19.238Z,7.30
2023-01-25T05:15:12.702Z,7.90
2023-01-25T05:17:59.385Z,7.63
2023-01-25T05:20:46.046Z,7.90
2023-01-25T05:23:31.699Z,7.95
2023-01-25T05:26:36.074Z,8.43
2023-01-25T05:29:21.509Z,9.05
2023-01-25T05:32:20.912Z,8.35
2023-01-25T05:35:07.807Z,8.27
2023-01-25T05:37:58.450Z,8.55
2023-01-25T05:40:45.598Z,9.38
2023-01-25T05:43:31.304Z,8.80
2023-01-25T05:46:17.379Z,8.45
2023-01-25T05:49:03.214Z,8.63
2023-01-25T05:51:49.857Z,9.20
2023-01-25T05:54:37.609Z,8.73
2023-01-25T05:57:24.969Z,8.85
2023-01-25T06:00:12.390Z,8.85
2023-01-25T06:03:02.238Z,8.50
2023-01-25T06:05:59.280Z,9.65
2023-01-25T06:08:46.257Z,9.65
2023-01-25T06:11:32.333Z,9.38
2023-01-25T06:14:18.718Z,9.38
2023-01-25T06:17:04.918Z,9.13
2023-01-25T06:20:12.030Z,9.48
2023-01-25T06:23:13.858Z,9.43
2023-01-25T06:26:02.109Z,9.82
2023-01-25T06:28:48.493Z,9.93
2023-01-25T06:31:34.970Z,9.20
2023-01-25T06:34:20.849Z,9.40
2023-01-25T06:37:08.855Z,9.55
2023-01-25T06:39:54.846Z,10.63
2023-01-25T06:42:40.205Z,9.60
2023-01-25T06:45:26.249Z,10.88
2023-01-25T06:48:12.987Z,10.40
2023-01-25T06:51:05.777Z,11.38
2023-01-25T06:53:51.718Z,10.45
2023-01-25T06:56:37.163Z,11.10
2023-01-25T06:59:22.988Z,10.30
2023-01-25T07:02:16.508Z,11.00
2023-01-25T07:05:02.254Z,11.50
2023-01-25T07:07:48.157Z,11.20
2023-01-25T07:10:34.577Z,11.48
2023-01-25T07:13:20.300Z,10.70
2023-01-25T07:16:07.578Z,10.68
2023-01-25T07:18:54.859Z,11.45
2023-01-25T07:21:41.034Z,11.33
2023-01-25T07:24:28.798Z,10.63
2023-01-25T07:27:14.620Z,11.50
2023-01-25T07:30:00.041Z,11.70
2023-01-25T07:32:46.437Z,10.93
2023-01-25T07:35:33.045Z,10.50
2023-01-25T07:38:19.169Z,11.10
2023-01-25T07:41:05.035Z,11.73
2023-01-25T07:43:51.308Z,11.30
2023-01-25T07:46:48.140Z,12.27
2023-01-25T07:49:35.003Z,11.82
2023-01-25T07:52:20.731Z,11.80
2023-01-25T07:55:06.403Z,12.52
2023-01-25T07:57:55.819Z,12.10
2023-01-25T08:00:41.857Z,11.75
2023-01-25T08:03:27.937Z,11.63
2023-01-25T08:06:14.110Z,12.45
2023-01-25T08:09:00.511Z,12.80
2023-01-25T08:11:47.401Z,11.63
2023-01-25T08:14:33.475Z,12.05
2023-01-25T08:17:19.790Z,11.50
2023-01-25T08:20:08.054Z,11.98
2023-01-25T08:22:54.579Z,12.45
2023-01-25T08:25:40.644Z,13.70
2023-01-25T08:28:26.237Z,13.38
2023-01-25T08:31:15.747Z,13.35
2023-01-25T08:34:02.430Z,12.93
2023-01-25T08:39:40.415Z,14.13
2023-01-25T08:42:26.407Z,13.70
2023-01-25T08:45:12.379Z,13.77
2023-01-25T08:47:58.032Z,15.38
2023-01-25T08:50:48.039Z,13.57
2023-01-25T08:53:34.593Z,14.07
2023-01-25T08:56:20.865Z,14.40
2023-01-25T08:59:07.857Z,14.35
2023-01-25T09:01:53.863Z,15.27
2023-01-25T09:04:39.555Z,14.68
2023-01-25T09:07:25.716Z,14.13
2023-01-25T09:10:12.335Z,15.13
2023-01-25T09:12:57.849Z,15.60
2023-01-25T09:15:43.341Z,15.50
2023-01-25T09:18:30.068Z,17.15
2023-01-25T09:21:17.864Z,16.58
2023-01-25T09:24:06.926Z,16.45
2023-01-25T09:26:59.683Z,18.50
2023-01-25T09:30:00.034Z,18.55
2023-01-25T09:32:50.712Z,17.42
2023-01-25T09:35:37.427Z,19.23
2023-01-25T09:38:23.797Z,19.10
2023-01-25T09:41:31.355Z,18.65
2023-01-25T09:44:47.955Z,18.50
2023-01-25T09:48:09.397Z,18.30
2023-01-25T09:51:14.482Z,18.23
2023-01-25T09:54:01.163Z,19.50
2023-01-25T09:56:50.990Z,19.35
2023-01-25T09:59:39.643Z,19.10
2023-01-25T10:02:47.141Z,16.92
2023-01-25T10:05:41.251Z,17.27
2023-01-25T10:08:53.913Z,16.60
2023-01-25T10:11:39.811Z,17.60
2023-01-25T10:14:26.038Z,17.13
2023-01-25T10:17:38.550Z,16.80
2023-01-25T10:20:27.599Z,18.45
2023-01-25T10:23:22.233Z,17.30
2023-01-25T10:26:29.990Z,18.25
2023-01-25T10:29:27.223Z,16.70
2023-01-25T10:32:16.106Z,16.75
2023-01-25T10:35:29.173Z,16.20
2023-01-25T10:38:27.216Z,16.45
2023-01-25T10:41:42.221Z,17.77
2023-01-25T10:44:29.131Z,16.80
2023-01-25T10:47:37.245Z,17.08
2023-01-25T10:50:47.917Z,16.42
2023-01-25T10:53:45.867Z,16.83
2023-01-25T10:56:40.095Z,16.58
2023-01-25T10:59:28.425Z,20.70
2023-01-25T11:02:47.433Z,18.98
2023-01-25T11:05:33.478Z,17.80
2023-01-25T11:08:33.656Z,17.80
2023-01-25T11:11:27.293Z,17.17
2023-01-25T11:14:19.629Z,17.33
2023-01-25T11:17:06.253Z,16.83
2023-01-25T11:20:16.296Z,17.05
2023-01-25T11:23:02.729Z,16.20
2023-01-25T11:25:49.013Z,16.55
2023-01-25T11:28:35.499Z,14.85
2023-01-25T11:31:23.179Z,14.32
2023-01-25T11:34:11.987Z,14.43
2023-01-25T11:37:07.572Z,14.25
2023-01-25T11:40:15.888Z,15.40
2023-01-25T11:43:24.284Z,16.42
2023-01-25T11:46:24.403Z,14.95
2023-01-25T11:49:16.489Z,15.13
2023-01-25T11:52:35.418Z,15.30
2023-01-25T11:55:44.223Z,11.52
2023-01-25T11:59:01.524Z,10.68
2023-01-25T12:02:10.016Z,8.07
2023-01-25T12:05:21.864Z,9.63
2023-01-25T12:08:27.064Z,9.67
2023-01-25T12:11:28.471Z,9.35
2023-01-25T12:14:29.567Z,8.75
2023-01-25T12:17:30.071Z,9.98
2023-01-25T12:20:39.808Z,8.63
2023-01-25T12:23:55.610Z,8.10
2023-01-25T12:27:06.194Z,7.95
2023-01-25T12:30:01.876Z,8.37
2023-01-25T12:32:57.308Z,8.35
2023-01-25T12:36:01.646Z,6.35
2023-01-25T12:39:05.207Z,5.45
2023-01-25T12:42:11.864Z,5.18
2023-01-25T12:45:12.125Z,5.10
2023-01-25T12:48:10.479Z,11.52
2023-01-25T12:51:00.336Z,10.43
2023-01-25T12:53:47.617Z,5.28
2023-01-25T12:56:47.002Z,5.45
2023-01-25T12:59:47.605Z,4.47
2023-01-25T13:02:52.365Z,4.50
2023-01-25T13:05:53.749Z,4.60
2023-01-25T13:09:05.315Z,4.75
2023-01-25T13:11:51.470Z,4.30
2023-01-25T13:14:39.733Z,5.03
2023-01-25T13:17:38.348Z,4.40
2023-01-25T13:20:43.629Z,4.50
2023-01-25T13:23:50.631Z,5.10
2023-01-25T13:26:49.030Z,5.50
2023-01-25T13:29:38.548Z,4.90
2023-01-25T13:32:33.780Z,5.60
2023-01-25T13:35:28.596Z,5.07
2023-01-25T13:38:17.890Z,5.53
2023-01-25T13:41:11.889Z,5.10
2023-01-25T13:44:19.904Z,4.57
2023-01-25T13:47:12.761Z,4.63
2023-01-25T13:50:21.227Z,4.60
2023-01-25T13:53:20.815Z,4.90
2023-01-25T13:56:30.691Z,6.10
2023-01-25T13:59:25.137Z,5.77
2023-01-25T14:02:19.975Z,4.65
2023-01-25T14:05:08.134Z,5.10
2023-01-25T14:07:57.494Z,5.10
2023-01-25T14:10:44.863Z,6.30
2023-01-25T14:13:30.697Z,5.55
2023-01-25T14:16:18.276Z,5.72
2023-01-25T14:19:40.986Z,7.03
2023-01-25T14:23:04.932Z,5.20
2023-01-25T14:25:51.230Z,5.72
2023-01-25T14:28:37.866Z,5.55
2023-01-25T14:31:35.077Z,5.57
2023-01-25T14:34:21.171Z,6.47
2023-01-25T14:37:20.822Z,4.97
2023-01-25T14:40:12.876Z,5.25
2023-01-25T14:42:59.720Z,5.18
2023-01-25T14:45:45.907Z,5.40
2023-01-25T14:48:36.550Z,7.15
2023-01-25T14:51:28.850Z,9.63
2023-01-25T14:54:36.443Z,7.55
2023-01-25T14:57:34.636Z,5.75
2023-01-25T15:00:21.799Z,5.53
2023-01-25T15:03:16.908Z,5.68
2023-01-25T15:06:04.359Z,6.88
2023-01-25T15:08:49.901Z,9.23
2023-01-25T15:11:38.659Z,7.45
2023-01-25T15:14:24.184Z,5.03
2023-01-25T15:17:38.681Z,5.15
2023-01-25T15:20:36.845Z,4.82
2023-01-25T15:23:25.122Z,5.30
2023-01-25T15:26:18.830Z,4.53
2023-01-25T15:29:16.588Z,4.28
2023-01-25T15:32:02.915Z,4.65
2023-01-25T15:34:48.840Z,4.78
2023-01-25T15:37:34.301Z,4.63
2023-01-25T15:40:20.362Z,4.38
2023-01-25T15:43:06.523Z,4.63
2023-01-25T15:45:57.441Z,4.32
2023-01-25T15:48:44.859Z,4.93
2023-01-25T15:51:35.314Z,4.32
2023-01-25T15:54:22.338Z,5.47
2023-01-25T15:57:28.622Z,5.00
2023-01-25T16:00:19.806Z,5.00
2023-01-25T16:03:05.936Z,4.50
2023-01-25T16:05:56.785Z,4.70
2023-01-25T16:08:42.663Z,5.10
2023-01-25T16:11:28.995Z,4.57
2023-01-25T16:14:15.271Z,9.15
2023-01-25T16:17:05.661Z,9.93
2023-01-25T16:19:52.180Z,7.78
2023-01-25T16:22:37.978Z,5.18
2023-01-25T16:25:23.743Z,4.70
2023-01-25T16:28:16.363Z,4.60
2023-01-25T16:31:03.018Z,4.82
2023-01-25T16:33:48.734Z,5.57
2023-01-25T16:36:34.429Z,5.68
2023-01-25T16:39:25.576Z,5.80
2023-01-25T16:42:11.633Z,5.60
2023-01-25T16:44:57.974Z,5.18
2023-01-25T16:47:44.349Z,5.63
2023-01-25T16:50:30.512Z,5.35
2023-01-25T16:53:16.304Z,5.05
2023-01-25T16:56:02.922Z,4.93
2023-01-25T16:58:50.976Z,5.18
2023-01-25T17:01:41.633Z,5.38
2023-01-25T17:04:27.652Z,6.13
2023-01-25T17:07:13.807Z,5.73
2023-01-25T17:09:59.484Z,5.70
2023-01-25T17:12:46.190Z,5.22
2023-01-25T17:15:33.886Z,6.32
2023-01-25T17:18:19.691Z,5.43
2023-01-25T17:21:07.520Z,5.97
2023-01-25T17:23:55.867Z,5.95
2023-01-25T17:26:41.959Z,5.75
2023-01-25T17:29:29.816Z,5.68
2023-01-25T17:32:16.660Z,5.18
2023-01-25T17:35:02.648Z,6.00
2023-01-25T17:37:48.567Z,5.47
2023-01-25T17:40:36.301Z,5.95
2023-01-25T17:43:22.324Z,6.10
2023-01-25T17:46:21.978Z,6.07
2023-01-25T17:49:11.990Z,6.25
2023-01-25T17:51:57.534Z,6.25
2023-01-25T17:54:42.913Z,6.70
2023-01-25T17:57:31.691Z,6.15
2023-01-25T18:00:18.521Z,24.50
2023-01-25T18:03:04.948Z,28.80
2023-01-25T18:05:55.705Z,7.60
2023-01-25T18:08:48.150Z,7.07
2023-01-25T18:11:35.843Z,6.72
2023-01-25T18:14:21.156Z,7.65
2023-01-25T18:17:07.248Z,7.30
2023-01-25T18:19:53.390Z,10.35
2023-01-25T18:22:39.135Z,9.15
2023-01-25T18:25:36.590Z,9.75
2023-01-25T18:28:22.557Z,8.70
2023-01-25T18:31:10.840Z,9.25
2023-01-25T18:33:58.212Z,12.15
2023-01-25T18:36:43.899Z,11.90
2023-01-25T18:39:30.505Z,10.57
2023-01-25T18:42:16.528Z,9.30
2023-01-25T18:45:02.694Z,9.55
2023-01-25T18:47:48.759Z,10.00
2023-01-25T18:50:34.405Z,13.18
2023-01-25T18:53:20.212Z,8.63
2023-01-25T18:56:16.051Z,9.30
2023-01-25T18:59:02.217Z,8.90
2023-01-25T19:01:48.389Z,9.15
2023-01-25T19:04:34.179Z,8.57
2023-01-25T19:07:20.561Z,8.68
2023-01-25T19:10:06.980Z,8.95
2023-01-25T19:12:52.802Z,9.20
2023-01-25T19:15:38.946Z,8.82
2023-01-25T19:18:25.089Z,8.52
2023-01-25T19:21:10.976Z,8.53
2023-01-25T19:23:57.689Z,8.40
2023-01-25T19:26:43.462Z,8.73
2023-01-25T19:29:29.240Z,9.60
2023-01-25T19:32:14.761Z,10.25
2023-01-25T19:35:01.253Z,9.70
2023-01-25T19:37:47.522Z,9.27
2023-01-25T19:40:33.973Z,9.68
2023-01-25T19:43:19.839Z,10.25
2023-01-25T19:46:14.893Z,8.50
2023-01-25T19:49:02.969Z,9.18
2023-01-25T19:51:53.139Z,9.93
2023-01-25T19:54:39.733Z,9.18
2023-01-25T19:57:25.995Z,8.93
2023-01-25T20:00:13.075Z,8.32
2023-01-25T20:03:10.651Z,8.82
2023-01-25T20:06:03.368Z,10.32
2023-01-25T20:08:49.841Z,9.98
2023-01-25T20:11:36.970Z,9.20
2023-01-25T20:14:23.588Z,9.68
2023-01-25T20:17:09.143Z,9.53
2023-01-25T20:19:55.565Z,9.45
2023-01-25T20:22:41.915Z,9.48
2023-01-25T20:25:28.407Z,9.52
2023-01-25T20:28:14.202Z,9.70
2023-01-25T20:31:03.907Z,10.53
2023-01-25T20:33:51.975Z,9.68
2023-01-25T20:36:38.382Z,11.27
2023-01-25T20:39:24.577Z,11.13
2023-01-25T20:42:11.124Z,10.90
2023-01-25T20:44:57.954Z,10.75
2023-01-25T20:47:43.674Z,10.90
2023-01-25T20:50:29.708Z,11.75
2023-01-25T20:53:16.868Z,11.70
2023-01-25T20:56:03.659Z,12.05
2023-01-25T20:58:50.960Z,14.23
2023-01-25T21:01:37.369Z,10.52
2023-01-25T21:04:23.289Z,11.52
2023-01-25T21:07:09.707Z,10.73
2023-01-25T21:09:56.272Z,11.70
2023-01-25T21:12:42.067Z,11.50
2023-01-25T21:15:27.906Z,11.38
2023-01-25T21:18:14.148Z,11.70
2023-01-25T21:21:05.039Z,11.55
2023-01-25T21:23:51.090Z,10.75
2023-01-25T21:26:38.255Z,11.18
2023-01-25T21:29:24.000Z,12.20
2023-01-25T21:32:09.741Z,11.20
2023-01-25T21:34:55.479Z,12.40
2023-01-25T21:37:41.653Z,14.68
2023-01-25T21:40:28.969Z,18.02
2023-01-25T21:43:17.892Z,14.05
2023-01-25T21:46:25.245Z,13.30
2023-01-25T21:49:38.647Z,12.50
2023-01-25T21:52:24.273Z,13.00
2023-01-25T21:55:11.302Z,13.02
2023-01-25T21:57:58.424Z,13.77
2023-01-25T22:00:44.501Z,12.20
2023-01-25T22:03:31.445Z,11.82
2023-01-25T22:06:18.602Z,11.98
2023-01-25T22:09:05.028Z,13.25
2023-01-25T22:11:52.902Z,13.27
2023-01-25T22:14:38.576Z,12.43
2023-01-25T22:17:25.570Z,12.55
2023-01-25T22:20:13.066Z,12.45
2023-01-25T22:22:58.867Z,12.70
2023-01-25T22:25:44.232Z,12.93
2023-01-25T22:28:43.821Z,12.82
2023-01-25T22:31:33.100Z,12.13
2023-01-25T22:34:19.300Z,12.27
2023-01-25T22:37:05.004Z,12.35
2023-01-25T22:39:54.250Z,11.70
2023-01-25T22:42:39.603Z,11.63
2023-01-25T22:45:25.469Z,11.77
2023-01-25T22:48:11.428Z,12.15
2023-01-25T22:51:17.404Z,12.35
2023-01-25T22:54:02.849Z,12.13
2023-01-25T22:56:48.745Z,11.18
2023-01-25T22:59:35.070Z,10.60
2023-01-25T23:02:20.935Z,12.15
2023-01-25T23:05:07.989Z,11.85
2023-01-25T23:07:55.290Z,11.13
2023-01-25T23:10:41.523Z,12.00
2023-01-25T23:13:27.871Z,12.77
2023-01-25T23:16:13.820Z,11.87
2023-01-25T23:19:00.723Z,11.57
2023-01-25T23:21:46.841Z,10.45
2023-01-25T23:24:33.122Z,10.27
2023-01-25T23:27:18.915Z,11.43
2023-01-25T23:30:04.977Z,11.68
2023-01-25T23:32:51.821Z,10.65
2023-01-25T23:35:37.937Z,10.77
2023-01-25T23:38:23.515Z,11.10
2023-01-25T23:41:09.607Z,10.93
2023-01-25T23:43:56.009Z,10.93
2023-01-25T23:46:42.271Z,10.57
2023-01-25T23:49:27.981Z,11.50
2023-01-25T23:52:13.519Z,11.20
2023-01-25T23:54:59.750Z,11.27
2023-01-25T23:57:45.443Z,11.57
